createdAt,value
2017-12-11T00:00:48.948Z,0
2017-12-11T00:01:57.768Z,0
2017-12-11T00:03:06.592Z,0
2017-12-11T00:04:15.417Z,0
2017-12-11T00:05:24.290Z,0
2017-12-11T00:06:33.115Z,0
2017-12-11T00:07:41.937Z,0
2017-12-11T00:08:50.766Z,0
2017-12-11T00:09:59.587Z,0
2017-12-11T00:11:08.412Z,0
2017-12-11T00:12:17.235Z,0
2017-12-11T00:13:26.057Z,0
2017-12-11T00:14:35.157Z,0
2017-12-11T00:15:43.980Z,0
2017-12-11T00:16:53.225Z,0
2017-12-11T00:18:02.049Z,0
2017-12-11T00:19:10.869Z,0
2017-12-11T00:20:19.695Z,0
2017-12-11T00:21:28.522Z,0
2017-12-11T00:22:37.773Z,0
2017-12-11T00:23:46.591Z,0
2017-12-11T00:24:55.414Z,0
2017-12-11T00:26:04.238Z,0
2017-12-11T00:27:13.059Z,0
2017-12-11T00:28:21.934Z,0
2017-12-11T00:29:30.758Z,0
2017-12-11T00:30:39.583Z,0
2017-12-11T00:31:48.405Z,0
2017-12-11T00:32:57.499Z,0
2017-12-11T00:34:06.486Z,0
2017-12-11T00:35:15.583Z,0
2017-12-11T00:36:24.409Z,0
2017-12-11T00:37:33.228Z,0
2017-12-11T00:38:42.054Z,0
2017-12-11T00:39:51.077Z,0
2017-12-11T00:40:59.900Z,0
2017-12-11T00:42:08.721Z,0
2017-12-11T00:43:17.546Z,0
2017-12-11T00:44:26.369Z,0
2017-12-11T00:45:35.193Z,0
2017-12-11T00:46:44.016Z,0
2017-12-11T00:47:52.839Z,0
2017-12-11T00:49:01.663Z,0
2017-12-11T00:50:10.489Z,0
2017-12-11T00:51:19.413Z,0
2017-12-11T00:52:28.233Z,0
2017-12-11T00:53:37.056Z,0
2017-12-11T00:54:46.154Z,0
2017-12-11T00:55:54.976Z,0
2017-12-11T00:57:03.898Z,0
2017-12-11T00:58:12.730Z,0
2017-12-11T00:59:21.551Z,0
2017-12-11T01:00:30.375Z,0
2017-12-11T01:01:39.201Z,0
2017-12-11T01:02:48.024Z,0
2017-12-11T01:03:56.849Z,0
2017-12-11T01:05:05.669Z,0
2017-12-11T01:06:14.492Z,0
2017-12-11T01:07:23.591Z,0
2017-12-11T01:08:32.560Z,0
2017-12-11T01:09:41.385Z,0
2017-12-11T01:10:50.213Z,0
2017-12-11T01:11:59.032Z,0
2017-12-11T01:13:07.856Z,0
2017-12-11T01:14:16.950Z,0
2017-12-11T01:15:25.773Z,0
2017-12-11T01:16:34.872Z,0
2017-12-11T01:17:43.746Z,0
2017-12-11T01:18:52.568Z,0
2017-12-11T01:20:01.440Z,0
2017-12-11T01:21:10.274Z,0
2017-12-11T01:22:19.097Z,0
2017-12-11T01:23:28.193Z,0
2017-12-11T01:24:37.417Z,0
2017-12-11T01:25:46.518Z,0
2017-12-11T01:26:55.340Z,0
2017-12-11T01:28:04.160Z,0
2017-12-11T01:29:13.262Z,0
2017-12-11T01:30:22.084Z,0
2017-12-11T01:31:30.906Z,0
2017-12-11T01:32:39.727Z,0
2017-12-11T01:33:48.548Z,0
2017-12-11T01:34:57.378Z,0
2017-12-11T01:36:06.193Z,0
2017-12-11T01:37:15.064Z,0
2017-12-11T01:38:23.887Z,0
2017-12-11T01:39:33.044Z,0
2017-12-11T01:40:41.865Z,0
2017-12-11T01:41:50.688Z,0
2017-12-11T01:42:59.559Z,0
2017-12-11T01:44:08.382Z,0
2017-12-11T01:45:17.480Z,0
2017-12-11T01:46:26.301Z,0
2017-12-11T01:47:35.128Z,0
2017-12-11T01:48:44.377Z,0
2017-12-11T01:49:53.195Z,0
2017-12-11T01:51:02.018Z,0
2017-12-11T01:52:10.843Z,0
2017-12-11T01:53:19.663Z,0
2017-12-11T01:54:28.487Z,0
2017-12-11T01:55:37.592Z,0
2017-12-11T01:56:46.413Z,0
2017-12-11T01:57:55.233Z,0
2017-12-11T01:59:04.603Z,0
2017-12-11T02:00:13.425Z,0
2017-12-11T02:01:22.247Z,0
2017-12-11T02:02:31.070Z,0
2017-12-11T02:03:39.895Z,0
2017-12-11T02:04:48.993Z,0
2017-12-11T02:05:57.916Z,0
2017-12-11T02:07:06.736Z,0
2017-12-11T02:08:15.559Z,0
2017-12-11T02:09:24.656Z,0
2017-12-11T02:10:33.477Z,0
2017-12-11T02:11:42.299Z,0
2017-12-11T02:12:51.122Z,0
2017-12-11T02:13:59.998Z,0
2017-12-11T02:15:09.045Z,0
2017-12-11T02:16:17.866Z,0
2017-12-11T02:17:26.785Z,0
2017-12-11T02:18:35.608Z,0
2017-12-11T02:19:44.985Z,0
2017-12-11T02:20:53.807Z,0
2017-12-11T02:22:02.630Z,0
2017-12-11T02:23:11.499Z,0
2017-12-11T02:24:20.322Z,0
2017-12-11T02:25:29.148Z,0
2017-12-11T02:26:37.970Z,0
2017-12-11T02:27:46.794Z,0
2017-12-11T02:28:56.040Z,0
2017-12-11T02:30:04.861Z,0
2017-12-11T02:31:13.681Z,0
2017-12-11T02:32:22.509Z,0
2017-12-11T02:33:31.329Z,0
2017-12-11T02:34:40.550Z,0
2017-12-11T02:35:49.370Z,0
2017-12-11T02:36:58.472Z,0
2017-12-11T02:38:07.292Z,0
2017-12-11T02:39:16.119Z,0
2017-12-11T02:40:25.240Z,0
2017-12-11T02:41:34.061Z,0
2017-12-11T02:42:43.165Z,0
2017-12-11T02:43:52.269Z,0
2017-12-11T02:45:01.092Z,0
2017-12-11T02:46:10.013Z,0
2017-12-11T02:47:19.112Z,0
2017-12-11T02:48:28.208Z,0
2017-12-11T02:49:37.031Z,0
2017-12-11T02:50:46.130Z,0
2017-12-11T02:51:55.250Z,0
2017-12-11T02:53:04.073Z,0
2017-12-11T02:54:12.897Z,0
2017-12-11T02:55:21.994Z,0
2017-12-11T02:56:30.816Z,0
2017-12-11T02:57:39.691Z,0
2017-12-11T02:58:48.514Z,0
2017-12-11T02:59:57.612Z,0
2017-12-11T03:01:06.430Z,0
2017-12-11T03:02:15.252Z,0
2017-12-11T03:03:24.074Z,0
2017-12-11T03:04:32.895Z,0
2017-12-11T03:05:41.717Z,0
2017-12-11T03:06:50.539Z,0
2017-12-11T03:07:59.360Z,0
2017-12-11T03:09:08.233Z,0
2017-12-11T03:10:17.055Z,0
2017-12-11T03:11:25.877Z,0
2017-12-11T03:12:34.700Z,0
2017-12-11T03:13:43.524Z,0
2017-12-11T03:14:52.776Z,0
2017-12-11T03:16:01.600Z,0
2017-12-11T03:17:10.419Z,0
2017-12-11T03:18:19.241Z,0
2017-12-11T03:19:28.062Z,0
2017-12-11T03:20:36.982Z,0
2017-12-11T03:21:45.804Z,0
2017-12-11T03:22:54.626Z,0
2017-12-11T03:24:03.448Z,0
2017-12-11T03:25:12.269Z,0
2017-12-11T03:26:21.491Z,0
2017-12-11T03:27:30.316Z,0
2017-12-11T03:28:39.137Z,0
2017-12-11T03:29:47.959Z,0
2017-12-11T03:30:56.789Z,0
2017-12-11T03:32:05.758Z,0
2017-12-11T03:33:14.579Z,0
2017-12-11T03:34:23.400Z,0
2017-12-11T03:35:32.223Z,0
2017-12-11T03:36:41.044Z,0
2017-12-11T03:37:50.165Z,0
2017-12-11T03:38:58.986Z,0
2017-12-11T03:40:08.080Z,0
2017-12-11T03:41:16.901Z,0
2017-12-11T03:42:25.782Z,0
2017-12-11T03:43:34.842Z,0
2017-12-11T03:44:43.663Z,0
2017-12-11T03:45:52.485Z,0
2017-12-11T03:47:01.310Z,0
2017-12-11T03:48:10.132Z,0
2017-12-11T03:49:18.953Z,0
2017-12-11T03:50:27.780Z,0
2017-12-11T03:51:36.598Z,0
2017-12-11T03:52:45.422Z,0
2017-12-11T03:53:54.241Z,0
2017-12-11T03:55:03.213Z,0
2017-12-11T03:56:12.036Z,0
2017-12-11T03:57:20.859Z,0
2017-12-11T03:58:29.678Z,0
2017-12-11T03:59:38.778Z,0
2017-12-11T04:00:47.750Z,0
2017-12-11T04:01:56.574Z,0
2017-12-11T04:03:05.398Z,0
2017-12-11T04:04:14.221Z,0
2017-12-11T04:05:23.316Z,0
2017-12-11T04:06:32.387Z,0
2017-12-11T04:07:41.209Z,0
2017-12-11T04:08:50.032Z,0
2017-12-11T04:09:58.851Z,0
2017-12-11T04:11:07.674Z,0
2017-12-11T04:12:16.495Z,0
2017-12-11T04:13:25.317Z,0
2017-12-11T04:14:34.140Z,0
2017-12-11T04:15:42.961Z,0
2017-12-11T04:16:51.784Z,0
2017-12-11T04:18:00.707Z,0
2017-12-11T04:19:09.529Z,0
2017-12-11T04:20:18.353Z,0
2017-12-11T04:21:27.175Z,0
2017-12-11T04:22:35.995Z,0
2017-12-11T04:23:44.816Z,0
2017-12-11T04:24:53.640Z,0
2017-12-11T04:26:02.460Z,0
2017-12-11T04:27:11.282Z,0
2017-12-11T04:28:20.652Z,0
2017-12-11T04:29:30.131Z,0
2017-12-11T04:30:38.951Z,0
2017-12-11T04:31:47.771Z,0
2017-12-11T04:32:56.593Z,0
2017-12-11T04:34:05.419Z,0
2017-12-11T04:35:14.513Z,0
2017-12-11T04:36:23.337Z,0
2017-12-11T04:37:32.158Z,0
2017-12-11T04:38:40.980Z,0
2017-12-11T04:39:49.802Z,0
2017-12-11T04:40:58.673Z,0
2017-12-11T04:42:07.496Z,0
2017-12-11T04:43:16.320Z,0
2017-12-11T04:44:25.142Z,0
2017-12-11T04:45:33.959Z,0
2017-12-11T04:46:42.839Z,0
2017-12-11T04:47:51.659Z,0
2017-12-11T04:49:00.483Z,0
2017-12-11T04:50:09.580Z,0
2017-12-11T04:51:18.675Z,0
2017-12-11T04:52:27.598Z,0
2017-12-11T04:53:36.420Z,0
2017-12-11T04:54:45.240Z,0
2017-12-11T04:55:54.063Z,0
2017-12-11T04:57:03.157Z,0
2017-12-11T04:58:12.030Z,0
2017-12-11T04:59:20.853Z,0
2017-12-11T05:00:29.673Z,0
2017-12-11T05:01:38.496Z,0
2017-12-11T05:02:47.319Z,0
2017-12-11T05:03:56.189Z,0
2017-12-11T05:05:05.293Z,0
2017-12-11T05:06:14.112Z,0
2017-12-11T05:07:22.934Z,0
2017-12-11T05:08:32.031Z,0
2017-12-11T05:09:40.952Z,0
2017-12-11T05:10:49.776Z,0
2017-12-11T05:11:58.598Z,0
2017-12-11T05:13:07.699Z,0
2017-12-11T05:14:16.525Z,0
2017-12-11T05:15:25.393Z,0
2017-12-11T05:16:34.218Z,0
2017-12-11T05:17:43.040Z,0
2017-12-11T05:18:51.859Z,0
2017-12-11T05:20:00.686Z,0
2017-12-11T05:21:09.659Z,0
2017-12-11T05:22:18.486Z,0
2017-12-11T05:23:27.306Z,0
2017-12-11T05:24:36.402Z,0
2017-12-11T05:25:45.227Z,0
2017-12-11T05:26:54.199Z,0
2017-12-11T05:28:03.020Z,0
2017-12-11T05:29:11.845Z,0
2017-12-11T05:30:20.942Z,0
2017-12-11T05:31:30.042Z,0
2017-12-11T05:32:38.863Z,0
2017-12-11T05:33:47.691Z,0
2017-12-11T05:34:56.514Z,0
2017-12-11T05:36:05.340Z,0
2017-12-11T05:37:14.163Z,0
2017-12-11T05:38:22.986Z,0
2017-12-11T05:39:31.811Z,0
2017-12-11T05:40:40.632Z,0
2017-12-11T05:41:49.730Z,0
2017-12-11T05:42:58.552Z,0
2017-12-11T05:44:07.374Z,0
2017-12-11T05:45:16.196Z,0
2017-12-11T05:46:25.019Z,0
2017-12-11T05:47:33.841Z,0
2017-12-11T05:48:42.665Z,0
2017-12-11T05:49:51.764Z,0
2017-12-11T05:51:00.589Z,0
2017-12-11T05:52:09.692Z,0
2017-12-11T05:53:18.511Z,0
2017-12-11T05:54:27.332Z,0
2017-12-11T05:55:36.154Z,0
2017-12-11T05:56:45.013Z,0
2017-12-11T05:57:53.801Z,0
2017-12-11T05:59:02.624Z,0
2017-12-11T06:00:11.453Z,0
2017-12-11T06:01:20.276Z,0
2017-12-11T06:02:29.101Z,0
2017-12-11T06:03:37.927Z,0
2017-12-11T06:04:46.751Z,0
2017-12-11T06:05:55.577Z,0
2017-12-11T06:07:04.670Z,0
2017-12-11T06:08:13.503Z,0
2017-12-11T06:09:22.367Z,0
2017-12-11T06:10:31.193Z,0
2017-12-11T06:11:40.017Z,0
2017-12-11T06:12:48.842Z,0
2017-12-11T06:13:57.664Z,0
2017-12-11T06:15:06.637Z,0
2017-12-11T06:16:15.460Z,0
2017-12-11T06:17:24.283Z,0
2017-12-11T06:18:33.105Z,0
2017-12-11T06:19:41.928Z,0
2017-12-11T06:20:50.750Z,0
2017-12-11T06:21:59.573Z,0
2017-12-11T06:23:08.395Z,0
2017-12-11T06:24:17.219Z,0
2017-12-11T06:25:26.316Z,0
2017-12-11T06:26:35.291Z,0
2017-12-11T06:27:44.390Z,0
2017-12-11T06:28:53.212Z,0
2017-12-11T06:30:02.038Z,0
2017-12-11T06:31:10.860Z,0
2017-12-11T06:32:20.106Z,0
2017-12-11T06:33:28.927Z,0
2017-12-11T06:34:37.754Z,0
2017-12-11T06:35:46.578Z,0
2017-12-11T06:36:55.402Z,0
2017-12-11T06:38:04.523Z,0
2017-12-11T06:39:13.343Z,0
2017-12-11T06:40:22.170Z,0
2017-12-11T06:41:30.990Z,0
2017-12-11T06:42:39.813Z,0
2017-12-11T06:43:48.937Z,0
2017-12-11T06:44:58.032Z,0
2017-12-11T06:46:06.855Z,0
2017-12-11T06:47:15.678Z,0
2017-12-11T06:48:24.505Z,0
2017-12-11T06:49:33.626Z,0
2017-12-11T06:50:42.723Z,0
2017-12-11T06:51:51.549Z,0
2017-12-11T06:53:00.369Z,0
2017-12-11T06:54:09.473Z,0
2017-12-11T06:55:18.344Z,0
2017-12-11T06:56:27.169Z,0
2017-12-11T06:57:35.993Z,0
2017-12-11T06:58:44.815Z,4
2017-12-11T06:59:53.637Z,4
2017-12-11T07:01:02.613Z,4
2017-12-11T07:02:11.437Z,4
2017-12-11T07:03:20.260Z,4
2017-12-11T07:04:29.085Z,4
2017-12-11T07:05:37.907Z,4
2017-12-11T07:06:47.131Z,8
2017-12-11T07:07:55.952Z,4
2017-12-11T07:09:04.777Z,8
2017-12-11T07:10:13.597Z,12
2017-12-11T07:11:22.423Z,16
2017-12-11T07:12:31.397Z,12
2017-12-11T07:13:40.219Z,16
2017-12-11T07:14:49.324Z,20
2017-12-11T07:15:58.150Z,20
2017-12-11T07:17:06.974Z,24
2017-12-11T07:18:15.895Z,28
2017-12-11T07:19:24.720Z,32
2017-12-11T07:20:33.541Z,40
2017-12-11T07:21:42.633Z,40
2017-12-11T07:22:51.456Z,44
2017-12-11T07:24:00.378Z,52
2017-12-11T07:25:09.198Z,56
2017-12-11T07:26:18.022Z,60
2017-12-11T07:27:26.843Z,64
2017-12-11T07:28:35.664Z,72
2017-12-11T07:29:44.642Z,80
2017-12-11T07:30:53.460Z,84
2017-12-11T07:32:02.281Z,88
2017-12-11T07:33:11.104Z,96
2017-12-11T07:34:19.926Z,100
2017-12-11T07:35:28.850Z,112
2017-12-11T07:36:37.673Z,116
2017-12-11T07:37:46.498Z,128
2017-12-11T07:38:55.319Z,136
2017-12-11T07:40:04.144Z,148
2017-12-11T07:41:13.266Z,164
2017-12-11T07:42:22.090Z,176
2017-12-11T07:43:30.913Z,188
2017-12-11T07:44:39.735Z,200
2017-12-11T07:45:48.559Z,208
2017-12-11T07:46:57.679Z,216
2017-12-11T07:48:06.778Z,224
2017-12-11T07:49:15.875Z,236
2017-12-11T07:50:24.698Z,248
2017-12-11T07:51:33.520Z,260
2017-12-11T07:52:42.493Z,268
2017-12-11T07:53:51.315Z,284
2017-12-11T07:55:00.137Z,292
2017-12-11T07:56:09.233Z,300
2017-12-11T07:57:18.056Z,304
2017-12-11T07:58:27.037Z,316
2017-12-11T07:59:35.852Z,324
2017-12-11T08:00:44.675Z,332
2017-12-11T08:01:53.495Z,348
2017-12-11T08:03:02.321Z,360
2017-12-11T08:04:11.291Z,356
2017-12-11T08:05:20.114Z,360
2017-12-11T08:06:29.212Z,356
2017-12-11T08:07:38.038Z,364
2017-12-11T08:08:46.860Z,384
2017-12-11T08:09:56.109Z,408
2017-12-11T08:11:04.929Z,420
2017-12-11T08:12:13.754Z,420
2017-12-11T08:13:22.576Z,436
2017-12-11T08:14:31.402Z,448
2017-12-11T08:15:40.277Z,460
2017-12-11T08:16:49.372Z,492
2017-12-11T08:17:58.194Z,500
2017-12-11T08:19:07.017Z,504
2017-12-11T08:20:15.837Z,532
2017-12-11T08:21:25.340Z,576
2017-12-11T08:22:34.160Z,584
2017-12-11T08:23:43.257Z,576
2017-12-11T08:24:52.079Z,592
2017-12-11T08:26:01.377Z,596
2017-12-11T08:27:10.578Z,600
2017-12-11T08:28:19.402Z,596
2017-12-11T08:29:28.226Z,584
2017-12-11T08:30:37.049Z,576
2017-12-11T08:31:46.147Z,604
2017-12-11T08:32:55.070Z,644
2017-12-11T08:34:03.892Z,648
2017-12-11T08:35:13.001Z,632
2017-12-11T08:36:21.828Z,648
2017-12-11T08:37:30.648Z,660
2017-12-11T08:38:39.622Z,636
2017-12-11T08:39:48.446Z,636
2017-12-11T08:40:57.268Z,644
2017-12-11T08:42:06.091Z,628
2017-12-11T08:43:14.915Z,632
2017-12-11T08:44:24.139Z,632
2017-12-11T08:45:32.960Z,648
2017-12-11T08:46:41.784Z,628
2017-12-11T08:47:50.609Z,636
2017-12-11T08:48:59.708Z,620
2017-12-11T08:50:08.786Z,596
2017-12-11T08:51:17.609Z,620
2017-12-11T08:52:26.435Z,640
2017-12-11T08:53:35.258Z,612
2017-12-11T08:54:44.081Z,660
2017-12-11T08:55:53.041Z,672
2017-12-11T08:57:01.840Z,672
2017-12-11T08:58:10.937Z,748
2017-12-11T08:59:19.761Z,760
2017-12-11T09:00:28.584Z,768
2017-12-11T09:01:37.510Z,812
2017-12-11T09:02:46.333Z,848
2017-12-11T09:03:55.157Z,844
2017-12-11T09:05:03.980Z,808
2017-12-11T09:06:12.805Z,784
2017-12-11T09:07:21.927Z,756
2017-12-11T09:08:30.750Z,780
2017-12-11T09:09:39.576Z,792
2017-12-11T09:10:48.399Z,784
2017-12-11T09:11:57.223Z,792
2017-12-11T09:13:06.348Z,816
2017-12-11T09:14:15.173Z,852
2017-12-11T09:15:24.272Z,856
2017-12-11T09:16:33.107Z,940
2017-12-11T09:17:42.312Z,908
2017-12-11T09:18:51.234Z,924
2017-12-11T09:20:00.059Z,964
2017-12-11T09:21:08.884Z,964
2017-12-11T09:22:17.707Z,1012
2017-12-11T09:23:26.534Z,1040
2017-12-11T09:24:35.506Z,1024
2017-12-11T09:25:44.340Z,1048
2017-12-11T09:26:53.438Z,1080
2017-12-11T09:28:02.259Z,1128
2017-12-11T09:29:11.083Z,1092
2017-12-11T09:30:20.158Z,1080
2017-12-11T09:31:28.979Z,1096
2017-12-11T09:32:37.804Z,1096
2017-12-11T09:33:46.631Z,1080
2017-12-11T09:34:55.449Z,1064
2017-12-11T09:36:04.275Z,1076
2017-12-11T09:37:13.098Z,1080
2017-12-11T09:38:21.922Z,1108
2017-12-11T09:39:30.748Z,1132
2017-12-11T09:40:40.122Z,1120
2017-12-11T09:41:48.997Z,1104
2017-12-11T09:42:57.822Z,1092
2017-12-11T09:44:06.643Z,1104
2017-12-11T09:45:15.467Z,1120
2017-12-11T09:46:24.563Z,1144
2017-12-11T09:47:33.539Z,1192
2017-12-11T09:48:42.362Z,1216
2017-12-11T09:49:51.185Z,1216
2017-12-11T09:51:00.010Z,1208
2017-12-11T09:52:08.831Z,1188
2017-12-11T09:53:17.955Z,1168
2017-12-11T09:54:26.778Z,1152
2017-12-11T09:55:35.602Z,1112
2017-12-11T09:56:44.427Z,1104
2017-12-11T09:57:53.254Z,1100
2017-12-11T09:59:02.360Z,1088
2017-12-11T10:00:11.185Z,1052
2017-12-11T10:01:20.008Z,1028
2017-12-11T10:02:28.832Z,1044
2017-12-11T10:03:37.656Z,1016
2017-12-11T10:04:46.533Z,960
2017-12-11T10:05:55.630Z,912
2017-12-11T10:07:04.453Z,912
2017-12-11T10:08:13.278Z,900
2017-12-11T10:09:22.099Z,924
2017-12-11T10:10:31.347Z,988
2017-12-11T10:11:40.172Z,1056
2017-12-11T10:12:48.998Z,1108
2017-12-11T10:13:58.096Z,1112
2017-12-11T10:15:07.196Z,1104
2017-12-11T10:16:16.171Z,1140
2017-12-11T10:17:24.996Z,1184
2017-12-11T10:18:33.820Z,1200
2017-12-11T10:19:42.641Z,1196
2017-12-11T10:20:51.742Z,1172
2017-12-11T10:22:00.715Z,1192
2017-12-11T10:23:09.540Z,1184
2017-12-11T10:24:18.367Z,1184
2017-12-11T10:25:27.194Z,1168
2017-12-11T10:26:36.016Z,1140
2017-12-11T10:27:45.143Z,1124
2017-12-11T10:28:53.967Z,1104
2017-12-11T10:30:02.792Z,1044
2017-12-11T10:31:11.617Z,1020
2017-12-11T10:32:20.446Z,1000
2017-12-11T10:33:29.315Z,948
2017-12-11T10:34:38.140Z,976
2017-12-11T10:35:46.962Z,952
2017-12-11T10:36:56.057Z,940
2017-12-11T10:38:04.882Z,916
2017-12-11T10:39:13.978Z,896
2017-12-11T10:40:22.802Z,864
2017-12-11T10:41:31.626Z,864
2017-12-11T10:42:40.450Z,868
2017-12-11T10:43:49.273Z,880
2017-12-11T10:44:58.196Z,900
2017-12-11T10:46:07.020Z,960
2017-12-11T10:47:15.845Z,1016
2017-12-11T10:48:24.670Z,1052
2017-12-11T10:49:33.494Z,1120
2017-12-11T10:50:42.467Z,1144
2017-12-11T10:51:51.289Z,1132
2017-12-11T10:53:00.114Z,1144
2017-12-11T10:54:08.940Z,1144
2017-12-11T10:55:17.764Z,1140
2017-12-11T10:56:26.640Z,1124
2017-12-11T10:57:35.463Z,1120
2017-12-11T10:58:44.286Z,1120
2017-12-11T10:59:53.110Z,1128
2017-12-11T11:01:01.936Z,1144
2017-12-11T11:02:11.231Z,1148
2017-12-11T11:03:20.053Z,1124
2017-12-11T11:04:28.878Z,1088
2017-12-11T11:05:37.977Z,1068
2017-12-11T11:06:46.802Z,1068
2017-12-11T11:07:55.724Z,1072
2017-12-11T11:09:04.825Z,1080
2017-12-11T11:10:13.647Z,1092
2017-12-11T11:11:22.470Z,1080
2017-12-11T11:12:31.294Z,1068
2017-12-11T11:13:40.269Z,1056
2017-12-11T11:14:49.379Z,1048
2017-12-11T11:15:58.204Z,1032
2017-12-11T11:17:07.026Z,1020
2017-12-11T11:18:15.852Z,1024
2017-12-11T11:19:24.776Z,1016
2017-12-11T11:20:33.600Z,1004
2017-12-11T11:21:42.422Z,996
2017-12-11T11:22:51.244Z,996
2017-12-11T11:24:00.343Z,1000
2017-12-11T11:25:09.468Z,1004
2017-12-11T11:26:18.291Z,1004
2017-12-11T11:27:27.115Z,1000
2017-12-11T11:28:35.937Z,1000
2017-12-11T11:29:44.763Z,1004
2017-12-11T11:30:53.737Z,1008
2017-12-11T11:32:02.558Z,1028
2017-12-11T11:33:11.382Z,1044
2017-12-11T11:34:20.204Z,1060
2017-12-11T11:35:29.026Z,1064
2017-12-11T11:36:38.000Z,1052
2017-12-11T11:37:46.824Z,1028
2017-12-11T11:38:55.646Z,1016
2017-12-11T11:40:04.745Z,1004
2017-12-11T11:41:13.569Z,1000
2017-12-11T11:42:22.443Z,1000
2017-12-11T11:43:31.264Z,992
2017-12-11T11:44:40.092Z,992
2017-12-11T11:45:48.915Z,996
2017-12-11T11:46:57.741Z,988
2017-12-11T11:48:06.714Z,992
2017-12-11T11:49:15.538Z,1000
2017-12-11T11:50:24.362Z,1004
2017-12-11T11:51:33.465Z,1004
2017-12-11T11:52:42.287Z,996
2017-12-11T11:53:51.160Z,976
2017-12-11T11:54:59.986Z,968
2017-12-11T11:56:08.809Z,960
2017-12-11T11:57:17.634Z,960
2017-12-11T11:58:26.457Z,964
2017-12-11T11:59:35.383Z,980
2017-12-11T12:00:44.206Z,1012
2017-12-11T12:01:53.028Z,1020
2017-12-11T12:03:01.853Z,1024
2017-12-11T12:04:10.676Z,1008
2017-12-11T12:05:19.651Z,992
2017-12-11T12:06:28.474Z,976
2017-12-11T12:07:37.298Z,972
2017-12-11T12:08:46.124Z,980
2017-12-11T12:09:54.945Z,984
2017-12-11T12:11:03.772Z,992
2017-12-11T12:12:12.593Z,1004
2017-12-11T12:13:21.418Z,1020
2017-12-11T12:14:30.241Z,1016
2017-12-11T12:15:39.066Z,1020
2017-12-11T12:16:47.940Z,1032
2017-12-11T12:17:56.765Z,1052
2017-12-11T12:19:05.588Z,1080
2017-12-11T12:20:14.412Z,1100
2017-12-11T12:21:23.243Z,1092
2017-12-11T12:22:32.158Z,1076
2017-12-11T12:23:40.983Z,1076
2017-12-11T12:24:49.804Z,1080
2017-12-11T12:25:58.628Z,1088
2017-12-11T12:27:07.451Z,1100
2017-12-11T12:28:16.376Z,1112
2017-12-11T12:29:25.197Z,1112
2017-12-11T12:30:34.022Z,1100
2017-12-11T12:31:43.122Z,1080
2017-12-11T12:32:51.948Z,1052
2017-12-11T12:34:00.872Z,1028
2017-12-11T12:35:09.970Z,1012
2017-12-11T12:36:18.797Z,1008
2017-12-11T12:37:27.622Z,996
2017-12-11T12:38:36.451Z,980
2017-12-11T12:39:45.419Z,964
2017-12-11T12:40:54.515Z,944
2017-12-11T12:42:03.342Z,920
2017-12-11T12:43:12.166Z,904
2017-12-11T12:44:20.982Z,884
2017-12-11T12:45:30.107Z,844
2017-12-11T12:46:39.206Z,772
2017-12-11T12:47:48.034Z,772
2017-12-11T12:48:57.130Z,760
2017-12-11T12:50:06.228Z,732
2017-12-11T12:51:15.303Z,720
2017-12-11T12:52:24.126Z,700
2017-12-11T12:53:32.954Z,708
2017-12-11T12:54:41.777Z,696
2017-12-11T12:55:50.602Z,684
2017-12-11T12:56:59.578Z,688
2017-12-11T12:58:08.692Z,672
2017-12-11T12:59:17.799Z,660
2017-12-11T13:00:26.619Z,688
2017-12-11T13:01:35.443Z,684
2017-12-11T13:02:44.418Z,692
2017-12-11T13:03:53.245Z,688
2017-12-11T13:05:02.068Z,684
2017-12-11T13:06:10.893Z,676
2017-12-11T13:07:19.720Z,652
2017-12-11T13:08:28.746Z,664
2017-12-11T13:09:37.572Z,628
2017-12-11T13:10:46.395Z,624
2017-12-11T13:11:55.224Z,624
2017-12-11T13:13:04.322Z,632
2017-12-11T13:14:13.581Z,612
2017-12-11T13:15:22.410Z,584
2017-12-11T13:16:31.235Z,576
2017-12-11T13:17:40.331Z,592
2017-12-11T13:18:49.163Z,588
2017-12-11T13:19:57.982Z,580
2017-12-11T13:21:06.807Z,560
2017-12-11T13:22:15.633Z,604
2017-12-11T13:23:24.733Z,588
2017-12-11T13:24:33.556Z,580
2017-12-11T13:25:42.580Z,640
2017-12-11T13:26:51.403Z,688
2017-12-11T13:28:00.227Z,680
2017-12-11T13:29:09.328Z,724
2017-12-11T13:30:18.426Z,760
2017-12-11T13:31:27.654Z,752
2017-12-11T13:32:36.480Z,732
2017-12-11T13:33:45.303Z,768
2017-12-11T13:34:54.127Z,784
2017-12-11T13:36:02.954Z,860
2017-12-11T13:37:12.076Z,844
2017-12-11T13:38:20.900Z,880
2017-12-11T13:39:29.728Z,836
2017-12-11T13:40:38.556Z,748
2017-12-11T13:41:47.654Z,756
2017-12-11T13:42:56.680Z,656
2017-12-11T13:44:05.505Z,664
2017-12-11T13:45:14.602Z,672
2017-12-11T13:46:23.425Z,588
2017-12-11T13:47:32.251Z,580
2017-12-11T13:48:41.174Z,588
2017-12-11T13:49:49.998Z,508
2017-12-11T13:50:58.824Z,544
2017-12-11T13:52:07.649Z,520
2017-12-11T13:53:16.474Z,512
2017-12-11T13:54:25.448Z,492
2017-12-11T13:55:34.274Z,512
2017-12-11T13:56:43.108Z,500
2017-12-11T13:57:51.936Z,564
2017-12-11T13:59:00.761Z,552
2017-12-11T14:00:09.638Z,512
2017-12-11T14:01:18.462Z,492
2017-12-11T14:02:27.284Z,456
2017-12-11T14:03:36.110Z,456
2017-12-11T14:04:44.941Z,440
2017-12-11T14:05:53.914Z,408
2017-12-11T14:07:02.738Z,380
2017-12-11T14:08:11.563Z,344
2017-12-11T14:09:20.387Z,288
2017-12-11T14:10:29.212Z,280
2017-12-11T14:11:38.035Z,252
2017-12-11T14:12:46.861Z,248
2017-12-11T14:13:55.686Z,216
2017-12-11T14:15:04.510Z,220
2017-12-11T14:16:13.339Z,200
2017-12-11T14:17:22.489Z,188
2017-12-11T14:18:31.317Z,176
2017-12-11T14:19:40.413Z,164
2017-12-11T14:20:49.239Z,152
2017-12-11T14:21:58.062Z,136
2017-12-11T14:23:07.410Z,120
2017-12-11T14:24:16.235Z,104
2017-12-11T14:25:25.058Z,96
2017-12-11T14:26:34.158Z,96
2017-12-11T14:27:43.267Z,84
2017-12-11T14:28:52.285Z,80
2017-12-11T14:30:01.112Z,76
2017-12-11T14:31:10.210Z,84
2017-12-11T14:32:19.036Z,88
2017-12-11T14:33:27.860Z,80
2017-12-11T14:34:36.682Z,76
2017-12-11T14:35:45.779Z,76
2017-12-11T14:36:54.606Z,72
2017-12-11T14:38:03.728Z,72
2017-12-11T14:39:12.526Z,68
2017-12-11T14:40:21.649Z,80
2017-12-11T14:41:30.474Z,88
2017-12-11T14:42:39.300Z,92
2017-12-11T14:43:48.126Z,92
2017-12-11T14:44:56.946Z,84
2017-12-11T14:46:05.772Z,76
2017-12-11T14:47:14.591Z,64
2017-12-11T14:48:23.415Z,56
2017-12-11T14:49:32.238Z,52
2017-12-11T14:50:41.063Z,48
2017-12-11T14:51:49.886Z,48
2017-12-11T14:52:58.709Z,48
2017-12-11T14:54:07.534Z,44
2017-12-11T14:55:16.358Z,44
2017-12-11T14:56:25.209Z,44
2017-12-11T14:57:34.053Z,40
2017-12-11T14:58:42.874Z,40
2017-12-11T14:59:51.698Z,36
2017-12-11T15:01:00.798Z,36
2017-12-11T15:02:09.620Z,32
2017-12-11T15:03:18.494Z,32
2017-12-11T15:04:27.317Z,28
2017-12-11T15:05:36.197Z,28
2017-12-11T15:06:44.965Z,24
2017-12-11T15:07:53.787Z,24
2017-12-11T15:09:03.137Z,20
2017-12-11T15:10:12.232Z,20
2017-12-11T15:11:21.054Z,20
2017-12-11T15:12:29.887Z,16
2017-12-11T15:13:38.711Z,12
2017-12-11T15:14:47.535Z,16
2017-12-11T15:15:56.638Z,16
2017-12-11T15:17:05.478Z,16
2017-12-11T15:18:14.300Z,8
2017-12-11T15:19:23.124Z,8
2017-12-11T15:20:32.499Z,8
2017-12-11T15:21:41.649Z,8
2017-12-11T15:22:50.604Z,4
2017-12-11T15:23:59.723Z,4
2017-12-11T15:25:08.963Z,4
2017-12-11T15:26:17.789Z,4
2017-12-11T15:27:26.611Z,4
2017-12-11T15:28:35.438Z,0
2017-12-11T15:29:44.260Z,4
2017-12-11T15:30:53.082Z,4
2017-12-11T15:32:01.923Z,0
2017-12-11T15:33:10.744Z,0
2017-12-11T15:34:19.567Z,0
2017-12-11T15:35:28.488Z,0
2017-12-11T15:36:37.587Z,0
2017-12-11T15:37:46.410Z,0
2017-12-11T15:38:55.233Z,0
2017-12-11T15:40:04.054Z,0
2017-12-11T15:41:12.878Z,0
2017-12-11T15:42:21.700Z,0
2017-12-11T15:43:30.521Z,0
2017-12-11T15:44:39.344Z,0
2017-12-11T15:45:48.468Z,0
2017-12-11T15:46:57.290Z,0
2017-12-11T15:48:06.118Z,0
2017-12-11T15:49:14.938Z,0
2017-12-11T15:50:24.039Z,0
2017-12-11T15:51:32.862Z,0
2017-12-11T15:52:41.685Z,0
2017-12-11T15:53:50.508Z,0
2017-12-11T15:54:59.334Z,0
2017-12-11T15:56:08.161Z,0
2017-12-11T15:57:17.141Z,0
2017-12-11T15:58:26.237Z,0
2017-12-11T15:59:35.060Z,0
2017-12-11T16:00:43.882Z,0
2017-12-11T16:01:52.716Z,0
2017-12-11T16:03:01.642Z,0
2017-12-11T16:04:10.467Z,0
2017-12-11T16:05:19.296Z,0
2017-12-11T16:06:28.120Z,0
2017-12-11T16:07:36.942Z,0
2017-12-11T16:08:45.916Z,0
2017-12-11T16:09:54.740Z,0
2017-12-11T16:11:03.565Z,0
2017-12-11T16:12:12.398Z,0
2017-12-11T16:13:21.496Z,0
2017-12-11T16:14:30.370Z,0
2017-12-11T16:15:39.191Z,0
2017-12-11T16:16:48.023Z,0
2017-12-11T16:17:56.858Z,0
2017-12-11T16:19:05.685Z,0
2017-12-11T16:20:14.558Z,0